sensor_id;sensor_type;location;lat;lon;timestamp;pressure;altitude;pressure_sealevel;temperature;humidity
21547;BME280;41275;51.912;4.388;2023-09-19T00:01:23;100716.59;;;22.97;39.11
21547;BME280;41275;51.912;4.388;2023-09-19T00:06:45;100713.34;;;22.55;40.37
21547;BME280;41275;51.912;4.388;2023-09-19T00:12:07;100712.72;;;22.59;41.11
21547;BME280;41275;51.912;4.388;2023-09-19T00:17:30;100716.41;;;22.63;41.07
21547;BME280;41275;51.912;4.388;2023-09-19T00:22:52;100731.84;;;22.71;41.54
21547;BME280;41275;51.912;4.388;2023-09-19T00:28:14;100734.03;;;22.60;42.08
21547;BME280;41275;51.912;4.388;2023-09-19T00:33:35;100733.03;;;22.56;42.20
21547;BME280;41275;51.912;4.388;2023-09-19T00:38:57;100731.63;;;22.59;42.59
21547;BME280;41275;51.912;4.388;2023-09-19T00:44:18;100741.72;;;22.75;42.31
21547;BME280;41275;51.912;4.388;2023-09-19T00:49:42;100746.97;;;22.81;41.91
21547;BME280;41275;51.912;4.388;2023-09-19T00:55:08;100752.19;;;22.77;41.94
21547;BME280;41275;51.912;4.388;2023-09-19T01:00:29;100748.66;;;22.68;42.10
21547;BME280;41275;51.912;4.388;2023-09-19T01:05:51;100753.38;;;22.40;42.93
21547;BME280;41275;51.912;4.388;2023-09-19T01:11:28;100753.88;;;22.42;43.61
21547;BME280;41275;51.912;4.388;2023-09-19T01:17:02;100743.84;;;22.56;43.81
21547;BME280;41275;51.912;4.388;2023-09-19T01:22:41;100754.66;;;22.65;43.75
21547;BME280;41275;51.912;4.388;2023-09-19T01:28:29;100755.13;;;22.67;43.53
21547;BME280;41275;51.912;4.388;2023-09-19T01:33:56;100771.78;;;22.60;43.67
21547;BME280;41275;51.912;4.388;2023-09-19T01:39:18;100772.38;;;22.57;43.69
21547;BME280;41275;51.912;4.388;2023-09-19T01:50:44;100761.06;;;22.46;43.29
21547;BME280;41275;51.912;4.388;2023-09-19T01:56:28;100757.25;;;22.47;43.04
21547;BME280;41275;51.912;4.388;2023-09-19T02:01:52;100759.16;;;22.47;43.00
21547;BME280;41275;51.912;4.388;2023-09-19T02:07:13;100762.16;;;22.45;42.60
21547;BME280;41275;51.912;4.388;2023-09-19T02:12:37;100757.25;;;22.47;42.66
21547;BME280;41275;51.912;4.388;2023-09-19T02:17:59;100761.75;;;22.52;42.66
21547;BME280;41275;51.912;4.388;2023-09-19T02:23:20;100761.41;;;22.53;42.83
21547;BME280;41275;51.912;4.388;2023-09-19T02:28:41;100767.91;;;22.52;43.04
21547;BME280;41275;51.912;4.388;2023-09-19T02:34:03;100764.31;;;22.57;43.31
21547;BME280;41275;51.912;4.388;2023-09-19T02:39:24;100772.00;;;22.72;43.20
21547;BME280;41275;51.912;4.388;2023-09-19T02:44:45;100772.22;;;22.85;43.35
21547;BME280;41275;51.912;4.388;2023-09-19T02:50:08;100763.72;;;22.91;42.93
21547;BME280;41275;51.912;4.388;2023-09-19T02:55:31;100760.88;;;22.96;42.76
21547;BME280;41275;51.912;4.388;2023-09-19T03:00:53;100750.44;;;23.03;42.47
21547;BME280;41275;51.912;4.388;2023-09-19T03:06:16;100766.16;;;23.10;42.30
21547;BME280;41275;51.912;4.388;2023-09-19T03:11:39;100774.56;;;23.00;42.66
21547;BME280;41275;51.912;4.388;2023-09-19T03:17:01;100772.84;;;22.82;43.27
21547;BME280;41275;51.912;4.388;2023-09-19T03:22:26;100778.81;;;22.70;43.86
21547;BME280;41275;51.912;4.388;2023-09-19T03:27:48;100780.53;;;22.66;44.17
21547;BME280;41275;51.912;4.388;2023-09-19T03:33:09;100777.69;;;22.71;44.37
21547;BME280;41275;51.912;4.388;2023-09-19T03:38:33;100767.97;;;22.61;44.56
21547;BME280;41275;51.912;4.388;2023-09-19T03:43:56;100779.19;;;22.54;44.50
21547;BME280;41275;51.912;4.388;2023-09-19T03:49:17;100786.44;;;22.45;44.55
21547;BME280;41275;51.912;4.388;2023-09-19T03:54:38;100795.34;;;22.32;44.70
21547;BME280;41275;51.912;4.388;2023-09-19T04:00:03;100787.00;;;22.20;45.11
21547;BME280;41275;51.912;4.388;2023-09-19T04:05:26;100791.00;;;22.22;45.54
21547;BME280;41275;51.912;4.388;2023-09-19T04:10:47;100805.28;;;22.23;45.75
21547;BME280;41275;51.912;4.388;2023-09-19T04:16:08;100822.16;;;22.28;45.77
21547;BME280;41275;51.912;4.388;2023-09-19T04:21:30;100822.03;;;22.34;45.96
21547;BME280;41275;51.912;4.388;2023-09-19T04:26:51;100817.75;;;22.33;45.86
21547;BME280;41275;51.912;4.388;2023-09-19T04:32:13;100818.91;;;22.40;45.86
21547;BME280;41275;51.912;4.388;2023-09-19T04:37:36;100821.59;;;22.40;45.99
21547;BME280;41275;51.912;4.388;2023-09-19T04:42:58;100820.53;;;22.27;46.14
21547;BME280;41275;51.912;4.388;2023-09-19T04:48:21;100828.56;;;22.19;46.28
21547;BME280;41275;51.912;4.388;2023-09-19T04:53:43;100831.84;;;22.16;46.41
21547;BME280;41275;51.912;4.388;2023-09-19T04:59:04;100819.81;;;22.13;46.58
21547;BME280;41275;51.912;4.388;2023-09-19T05:04:26;100822.28;;;22.10;46.36
21547;BME280;41275;51.912;4.388;2023-09-19T05:09:48;100824.47;;;22.08;46.44
21547;BME280;41275;51.912;4.388;2023-09-19T05:15:09;100827.59;;;22.01;46.46
21547;BME280;41275;51.912;4.388;2023-09-19T05:20:30;100820.31;;;22.01;46.38
21547;BME280;41275;51.912;4.388;2023-09-19T05:25:53;100823.28;;;22.00;46.69
21547;BME280;41275;51.912;4.388;2023-09-19T05:31:15;100822.28;;;21.96;47.10
21547;BME280;41275;51.912;4.388;2023-09-19T05:36:37;100806.91;;;21.96;47.12
21547;BME280;41275;51.912;4.388;2023-09-19T05:42:00;100820.38;;;21.96;47.46
21547;BME280;41275;51.912;4.388;2023-09-19T05:47:21;100837.84;;;21.99;47.62
21547;BME280;41275;51.912;4.388;2023-09-19T05:52:43;100842.38;;;21.90;48.09
21547;BME280;41275;51.912;4.388;2023-09-19T05:58:05;100838.97;;;21.84;48.23
21547;BME280;41275;51.912;4.388;2023-09-19T06:03:26;100855.66;;;21.86;48.52
21547;BME280;41275;51.912;4.388;2023-09-19T06:08:47;100854.84;;;21.86;48.67
21547;BME280;41275;51.912;4.388;2023-09-19T06:14:11;100857.44;;;21.91;48.84
21547;BME280;41275;51.912;4.388;2023-09-19T06:19:32;100861.13;;;21.95;48.71
21547;BME280;41275;51.912;4.388;2023-09-19T06:24:53;100854.94;;;21.94;48.99
21547;BME280;41275;51.912;4.388;2023-09-19T06:30:15;100854.03;;;21.99;48.84
21547;BME280;41275;51.912;4.388;2023-09-19T06:35:36;100861.31;;;21.98;49.18
21547;BME280;41275;51.912;4.388;2023-09-19T06:40:58;100862.41;;;21.97;48.94
21547;BME280;41275;51.912;4.388;2023-09-19T06:46:19;100880.50;;;21.97;49.05
21547;BME280;41275;51.912;4.388;2023-09-19T06:51:41;100864.22;;;22.02;49.12
21547;BME280;41275;51.912;4.388;2023-09-19T06:57:03;100870.19;;;22.13;48.75
21547;BME280;41275;51.912;4.388;2023-09-19T07:02:24;100863.78;;;22.22;48.98
21547;BME280;41275;51.912;4.388;2023-09-19T07:07:45;100866.94;;;22.38;48.89
21547;BME280;41275;51.912;4.388;2023-09-19T07:13:07;100864.22;;;22.52;48.43
21547;BME280;41275;51.912;4.388;2023-09-19T07:18:31;100867.56;;;22.58;48.31
21547;BME280;41275;51.912;4.388;2023-09-19T07:23:55;100871.50;;;22.74;48.10
21547;BME280;41275;51.912;4.388;2023-09-19T07:29:16;100875.81;;;22.97;48.31
21547;BME280;41275;51.912;4.388;2023-09-19T07:34:37;100893.31;;;23.00;47.99
21547;BME280;41275;51.912;4.388;2023-09-19T07:40:05;100886.47;;;23.02;47.97
21547;BME280;41275;51.912;4.388;2023-09-19T07:45:33;100878.88;;;23.05;47.72
21547;BME280;41275;51.912;4.388;2023-09-19T07:50:55;100864.13;;;23.11;47.74
21547;BME280;41275;51.912;4.388;2023-09-19T07:56:16;100876.59;;;23.20;47.19
21547;BME280;41275;51.912;4.388;2023-09-19T08:01:39;100870.59;;;23.32;47.26
21547;BME280;41275;51.912;4.388;2023-09-19T08:07:02;100876.53;;;23.74;46.57
21547;BME280;41275;51.912;4.388;2023-09-19T08:12:25;100870.97;;;23.88;46.32
21547;BME280;41275;51.912;4.388;2023-09-19T08:17:47;100863.50;;;23.85;45.58
21547;BME280;41275;51.912;4.388;2023-09-19T08:23:08;100859.56;;;23.99;45.49
21547;BME280;41275;51.912;4.388;2023-09-19T08:28:30;100856.72;;;24.22;44.99
21547;BME280;41275;51.912;4.388;2023-09-19T08:33:51;100856.69;;;23.87;44.68
21547;BME280;41275;51.912;4.388;2023-09-19T08:39:13;100851.25;;;23.70;45.32
21547;BME280;41275;51.912;4.388;2023-09-19T08:44:37;100849.03;;;23.81;45.52
21547;BME280;41275;51.912;4.388;2023-09-19T08:50:04;100839.84;;;23.99;45.38
21547;BME280;41275;51.912;4.388;2023-09-19T08:55:34;100850.38;;;24.27;45.30
21547;BME280;41275;51.912;4.388;2023-09-19T09:00:56;100852.28;;;24.43;44.64
21547;BME280;41275;51.912;4.388;2023-09-19T09:06:21;100853.56;;;24.46;44.54
21547;BME280;41275;51.912;4.388;2023-09-19T09:11:44;100866.91;;;24.34;44.57
21547;BME280;41275;51.912;4.388;2023-09-19T09:17:05;100854.22;;;24.60;44.13
21547;BME280;41275;51.912;4.388;2023-09-19T09:22:28;100859.78;;;24.55;44.29
21547;BME280;41275;51.912;4.388;2023-09-19T09:28:02;100857.03;;;24.81;44.11
21547;BME280;41275;51.912;4.388;2023-09-19T09:33:24;100852.53;;;25.03;43.95
21547;BME280;41275;51.912;4.388;2023-09-19T09:38:47;100839.38;;;25.31;43.35
21547;BME280;41275;51.912;4.388;2023-09-19T09:44:16;100839.06;;;25.32;43.35
21547;BME280;41275;51.912;4.388;2023-09-19T09:49:40;100835.34;;;25.45;43.29
21547;BME280;41275;51.912;4.388;2023-09-19T09:55:03;100831.16;;;25.57;42.71
21547;BME280;41275;51.912;4.388;2023-09-19T10:00:28;100832.28;;;25.56;42.31
21547;BME280;41275;51.912;4.388;2023-09-19T10:06:03;100838.22;;;25.70;42.26
21547;BME280;41275;51.912;4.388;2023-09-19T10:11:32;100830.44;;;25.68;42.09
21547;BME280;41275;51.912;4.388;2023-09-19T10:16:54;100817.59;;;25.57;42.24
21547;BME280;41275;51.912;4.388;2023-09-19T10:22:21;100795.34;;;25.72;42.19
21547;BME280;41275;51.912;4.388;2023-09-19T10:27:44;100806.69;;;25.65;42.29
21547;BME280;41275;51.912;4.388;2023-09-19T10:33:06;100805.16;;;25.85;42.24
21547;BME280;41275;51.912;4.388;2023-09-19T10:38:28;100819.47;;;25.94;42.06
21547;BME280;41275;51.912;4.388;2023-09-19T10:43:50;100801.25;;;26.16;41.45
21547;BME280;41275;51.912;4.388;2023-09-19T10:49:15;100778.69;;;26.24;41.33
21547;BME280;41275;51.912;4.388;2023-09-19T10:54:37;100781.63;;;26.19;40.65
21547;BME280;41275;51.912;4.388;2023-09-19T11:05:27;100775.81;;;26.75;40.58
21547;BME280;41275;51.912;4.388;2023-09-19T11:10:51;100785.00;;;26.95;39.85
21547;BME280;41275;51.912;4.388;2023-09-19T11:16:18;100776.72;;;26.79;40.04
21547;BME280;41275;51.912;4.388;2023-09-19T11:21:40;100770.00;;;26.52;40.85
21547;BME280;41275;51.912;4.388;2023-09-19T11:27:13;100760.94;;;26.14;40.75
21547;BME280;41275;51.912;4.388;2023-09-19T11:49:34;100760.00;;;25.89;41.92
21547;BME280;41275;51.912;4.388;2023-09-19T11:55:00;100761.50;;;26.20;41.94
21547;BME280;41275;51.912;4.388;2023-09-19T12:00:22;100754.09;;;26.75;41.61
21547;BME280;41275;51.912;4.388;2023-09-19T12:05:44;100758.69;;;27.32;40.50
21547;BME280;41275;51.912;4.388;2023-09-19T12:11:05;100738.44;;;27.17;40.55
21547;BME280;41275;51.912;4.388;2023-09-19T12:16:32;100749.84;;;27.23;40.54
21547;BME280;41275;51.912;4.388;2023-09-19T12:22:01;100757.69;;;27.24;40.63
21547;BME280;41275;51.912;4.388;2023-09-19T12:27:26;100767.50;;;27.53;40.12
21547;BME280;41275;51.912;4.388;2023-09-19T12:32:48;100760.19;;;27.70;39.99
21547;BME280;41275;51.912;4.388;2023-09-19T12:38:11;100759.19;;;28.43;38.93
21547;BME280;41275;51.912;4.388;2023-09-19T12:43:33;100763.31;;;28.52;38.70
21547;BME280;41275;51.912;4.388;2023-09-19T12:49:17;100767.25;;;27.71;38.62
21547;BME280;41275;51.912;4.388;2023-09-19T12:54:39;100775.00;;;27.32;39.53
21547;BME280;41275;51.912;4.388;2023-09-19T13:00:04;100756.56;;;27.13;40.43
21547;BME280;41275;51.912;4.388;2023-09-19T13:05:53;100751.63;;;26.70;40.80
21547;BME280;41275;51.912;4.388;2023-09-19T13:11:18;100737.06;;;26.41;41.46
21547;BME280;41275;51.912;4.388;2023-09-19T13:16:56;100743.09;;;26.59;41.62
21547;BME280;41275;51.912;4.388;2023-09-19T13:22:39;100732.13;;;26.55;41.50
21547;BME280;41275;51.912;4.388;2023-09-19T13:28:04;100751.06;;;26.43;41.61
21547;BME280;41275;51.912;4.388;2023-09-19T13:33:26;100748.06;;;26.24;41.67
21547;BME280;41275;51.912;4.388;2023-09-19T13:38:47;100745.84;;;26.26;42.03
21547;BME280;41275;51.912;4.388;2023-09-19T13:44:10;100744.31;;;26.16;41.43
21547;BME280;41275;51.912;4.388;2023-09-19T13:49:31;100740.09;;;26.06;41.79
21547;BME280;41275;51.912;4.388;2023-09-19T13:54:53;100744.19;;;26.12;41.76
21547;BME280;41275;51.912;4.388;2023-09-19T14:00:15;100783.53;;;26.18;41.93
21547;BME280;41275;51.912;4.388;2023-09-19T14:05:37;100775.91;;;25.70;43.07
21547;BME280;41275;51.912;4.388;2023-09-19T14:10:58;100776.41;;;25.13;43.98
21547;BME280;41275;51.912;4.388;2023-09-19T14:16:20;100736.53;;;24.75;45.69
21547;BME280;41275;51.912;4.388;2023-09-19T14:21:43;100749.47;;;25.16;45.92
21547;BME280;41275;51.912;4.388;2023-09-19T14:27:04;100744.16;;;25.50;45.58
21547;BME280;41275;51.912;4.388;2023-09-19T14:32:27;100745.06;;;25.62;44.38
21547;BME280;41275;51.912;4.388;2023-09-19T14:37:49;100737.63;;;25.71;43.74
21547;BME280;41275;51.912;4.388;2023-09-19T14:43:10;100764.59;;;25.68;43.75
21547;BME280;41275;51.912;4.388;2023-09-19T14:48:31;100760.47;;;25.70;43.61
21547;BME280;41275;51.912;4.388;2023-09-19T14:53:52;100747.88;;;25.66;43.70
21547;BME280;41275;51.912;4.388;2023-09-19T14:59:14;100745.91;;;25.75;43.54
21547;BME280;41275;51.912;4.388;2023-09-19T15:04:36;100739.09;;;25.69;43.76
21547;BME280;41275;51.912;4.388;2023-09-19T15:09:58;100741.78;;;25.69;43.57
21547;BME280;41275;51.912;4.388;2023-09-19T15:15:19;100744.97;;;25.71;43.60
21547;BME280;41275;51.912;4.388;2023-09-19T15:20:44;100741.75;;;25.78;43.69
21547;BME280;41275;51.912;4.388;2023-09-19T15:26:07;100752.72;;;25.81;43.56
21547;BME280;41275;51.912;4.388;2023-09-19T15:31:29;100747.84;;;25.75;43.82
21547;BME280;41275;51.912;4.388;2023-09-19T15:36:50;100767.47;;;25.71;43.84
21547;BME280;41275;51.912;4.388;2023-09-19T15:42:12;100767.56;;;25.54;44.10
21547;BME280;41275;51.912;4.388;2023-09-19T15:47:33;100763.38;;;25.36;44.68
21547;BME280;41275;51.912;4.388;2023-09-19T15:52:55;100752.25;;;25.29;45.13
21547;BME280;41275;51.912;4.388;2023-09-19T15:58:17;100759.91;;;25.27;44.94
21547;BME280;41275;51.912;4.388;2023-09-19T16:03:42;100753.53;;;25.31;45.39
21547;BME280;41275;51.912;4.388;2023-09-19T16:09:08;100758.13;;;25.31;45.40
21547;BME280;41275;51.912;4.388;2023-09-19T16:14:31;100752.16;;;25.16;45.62
21547;BME280;41275;51.912;4.388;2023-09-19T16:19:52;100753.69;;;24.88;46.34
21547;BME280;41275;51.912;4.388;2023-09-19T16:25:13;100755.72;;;24.91;46.86
21547;BME280;41275;51.912;4.388;2023-09-19T16:30:34;100753.81;;;24.91;46.98
21547;BME280;41275;51.912;4.388;2023-09-19T16:35:56;100754.00;;;24.86;47.19
21547;BME280;41275;51.912;4.388;2023-09-19T16:41:17;100750.72;;;24.63;47.67
21547;BME280;41275;51.912;4.388;2023-09-19T16:46:39;100757.31;;;24.45;47.75
21547;BME280;41275;51.912;4.388;2023-09-19T16:52:02;100762.41;;;24.29;48.42
21547;BME280;41275;51.912;4.388;2023-09-19T16:57:23;100757.16;;;24.07;49.24
21547;BME280;41275;51.912;4.388;2023-09-19T17:02:46;100764.78;;;23.96;49.78
21547;BME280;41275;51.912;4.388;2023-09-19T17:08:07;100764.47;;;23.71;50.19
21547;BME280;41275;51.912;4.388;2023-09-19T17:13:29;100769.47;;;23.47;50.60
21547;BME280;41275;51.912;4.388;2023-09-19T17:18:52;100771.16;;;23.34;51.43
21547;BME280;41275;51.912;4.388;2023-09-19T17:24:14;100773.19;;;23.11;51.99
21547;BME280;41275;51.912;4.388;2023-09-19T17:29:35;100756.75;;;22.99;52.61
21547;BME280;41275;51.912;4.388;2023-09-19T17:34:57;100753.56;;;22.97;53.17
21547;BME280;41275;51.912;4.388;2023-09-19T17:40:19;100766.28;;;22.96;53.51
21547;BME280;41275;51.912;4.388;2023-09-19T17:45:40;100770.59;;;23.06;53.92
21547;BME280;41275;51.912;4.388;2023-09-19T17:51:01;100780.59;;;23.06;53.51
21547;BME280;41275;51.912;4.388;2023-09-19T17:56:26;100760.47;;;23.12;53.77
21547;BME280;41275;51.912;4.388;2023-09-19T18:01:47;100775.56;;;23.21;53.73
21547;BME280;41275;51.912;4.388;2023-09-19T18:07:09;100777.97;;;23.23;53.80
21547;BME280;41275;51.912;4.388;2023-09-19T18:12:31;100796.41;;;23.30;53.90
21547;BME280;41275;51.912;4.388;2023-09-19T18:17:52;100790.88;;;23.35;53.75
21547;BME280;41275;51.912;4.388;2023-09-19T18:23:14;100775.16;;;23.37;53.66
21547;BME280;41275;51.912;4.388;2023-09-19T18:28:36;100769.31;;;23.43;53.69
21547;BME280;41275;51.912;4.388;2023-09-19T18:33:59;100781.72;;;23.53;53.53
21547;BME280;41275;51.912;4.388;2023-09-19T18:39:22;100787.13;;;23.62;53.46
21547;BME280;41275;51.912;4.388;2023-09-19T18:44:44;100784.66;;;23.74;53.05
21547;BME280;41275;51.912;4.388;2023-09-19T18:50:07;100782.41;;;23.76;53.20
21547;BME280;41275;51.912;4.388;2023-09-19T18:55:31;100790.41;;;23.90;52.87
21547;BME280;41275;51.912;4.388;2023-09-19T19:00:52;100779.25;;;23.91;52.52
21547;BME280;41275;51.912;4.388;2023-09-19T19:06:20;100772.44;;;23.94;52.37
21547;BME280;41275;51.912;4.388;2023-09-19T19:11:42;100771.94;;;24.00;52.18
21547;BME280;41275;51.912;4.388;2023-09-19T19:17:03;100767.81;;;24.03;52.24
21547;BME280;41275;51.912;4.388;2023-09-19T19:22:25;100767.19;;;24.06;51.91
21547;BME280;41275;51.912;4.388;2023-09-19T19:27:46;100772.44;;;24.03;51.92
21547;BME280;41275;51.912;4.388;2023-09-19T19:33:08;100768.78;;;24.07;52.04
21547;BME280;41275;51.912;4.388;2023-09-19T19:38:29;100763.84;;;24.09;51.88
21547;BME280;41275;51.912;4.388;2023-09-19T19:43:50;100761.59;;;24.11;51.83
21547;BME280;41275;51.912;4.388;2023-09-19T19:49:12;100779.56;;;24.16;51.84
21547;BME280;41275;51.912;4.388;2023-09-19T19:54:33;100788.03;;;24.06;51.61
21547;BME280;41275;51.912;4.388;2023-09-19T19:59:55;100795.91;;;23.67;52.35
21547;BME280;41275;51.912;4.388;2023-09-19T20:05:17;100785.78;;;23.82;52.53
21547;BME280;41275;51.912;4.388;2023-09-19T20:10:39;100801.38;;;23.93;52.70
21547;BME280;41275;51.912;4.388;2023-09-19T20:16:00;100782.75;;;24.00;52.46
21547;BME280;41275;51.912;4.388;2023-09-19T20:21:23;100794.38;;;24.10;52.64
21547;BME280;41275;51.912;4.388;2023-09-19T20:26:44;100782.59;;;24.14;52.43
21547;BME280;41275;51.912;4.388;2023-09-19T20:32:05;100783.38;;;24.23;52.27
21547;BME280;41275;51.912;4.388;2023-09-19T20:37:30;100777.03;;;24.28;52.07
21547;BME280;41275;51.912;4.388;2023-09-19T20:42:51;100792.78;;;24.35;51.88
21547;BME280;41275;51.912;4.388;2023-09-19T20:48:14;100774.81;;;24.47;51.58
21547;BME280;41275;51.912;4.388;2023-09-19T20:53:37;100777.66;;;24.51;51.62
21547;BME280;41275;51.912;4.388;2023-09-19T20:58:58;100787.69;;;24.51;50.97
21547;BME280;41275;51.912;4.388;2023-09-19T21:04:20;100795.81;;;24.51;51.08
21547;BME280;41275;51.912;4.388;2023-09-19T21:09:42;100783.88;;;24.52;51.14
21547;BME280;41275;51.912;4.388;2023-09-19T21:15:22;100779.25;;;24.52;51.12
21547;BME280;41275;51.912;4.388;2023-09-19T21:20:44;100776.25;;;24.45;51.31
21547;BME280;41275;51.912;4.388;2023-09-19T21:26:06;100765.09;;;24.46;51.29
21547;BME280;41275;51.912;4.388;2023-09-19T21:31:28;100765.25;;;24.50;51.30
21547;BME280;41275;51.912;4.388;2023-09-19T21:36:49;100761.91;;;24.53;51.19
21547;BME280;41275;51.912;4.388;2023-09-19T21:42:12;100761.13;;;24.53;51.24
21547;BME280;41275;51.912;4.388;2023-09-19T21:47:33;100752.03;;;24.57;51.03
21547;BME280;41275;51.912;4.388;2023-09-19T21:52:55;100757.59;;;24.61;50.94
21547;BME280;41275;51.912;4.388;2023-09-19T21:58:16;100755.50;;;24.66;50.70
21547;BME280;41275;51.912;4.388;2023-09-19T22:03:38;100748.97;;;24.67;50.63
21547;BME280;41275;51.912;4.388;2023-09-19T22:08:59;100747.53;;;24.70;50.41
21547;BME280;41275;51.912;4.388;2023-09-19T22:14:21;100741.63;;;24.68;50.13
21547;BME280;41275;51.912;4.388;2023-09-19T22:19:49;100735.75;;;24.74;50.14
21547;BME280;41275;51.912;4.388;2023-09-19T22:25:14;100747.06;;;24.68;49.99
21547;BME280;41275;51.912;4.388;2023-09-19T22:30:37;100751.22;;;24.65;49.74
21547;BME280;41275;51.912;4.388;2023-09-19T22:36:10;100738.13;;;24.76;49.76
21547;BME280;41275;51.912;4.388;2023-09-19T22:41:33;100756.25;;;24.84;49.49
21547;BME280;41275;51.912;4.388;2023-09-19T22:46:54;100748.28;;;24.88;49.33
21547;BME280;41275;51.912;4.388;2023-09-19T22:52:16;100748.88;;;24.93;48.95
21547;BME280;41275;51.912;4.388;2023-09-19T22:57:39;100745.22;;;24.98;48.87
21547;BME280;41275;51.912;4.388;2023-09-19T23:03:00;100745.34;;;25.02;48.94
21547;BME280;41275;51.912;4.388;2023-09-19T23:08:23;100746.78;;;24.99;48.83
21547;BME280;41275;51.912;4.388;2023-09-19T23:13:45;100742.03;;;24.96;48.69
21547;BME280;41275;51.912;4.388;2023-09-19T23:19:07;100748.63;;;24.78;48.98
21547;BME280;41275;51.912;4.388;2023-09-19T23:24:36;100749.75;;;24.68;49.36
21547;BME280;41275;51.912;4.388;2023-09-19T23:29:58;100752.13;;;24.78;49.22
21547;BME280;41275;51.912;4.388;2023-09-19T23:35:20;100753.56;;;24.76;49.25
21547;BME280;41275;51.912;4.388;2023-09-19T23:40:48;100763.00;;;24.61;49.49
21547;BME280;41275;51.912;4.388;2023-09-19T23:46:11;100769.06;;;24.58;49.76
21547;BME280;41275;51.912;4.388;2023-09-19T23:51:32;100752.69;;;24.45;49.79
21547;BME280;41275;51.912;4.388;2023-09-19T23:56:57;100751.25;;;24.31;50.08
